createdAt,value
2023-10-16T00:02:23.975Z,100.00
2023-10-16T00:04:50.674Z,100.00
2023-10-16T00:07:29.322Z,100.00
2023-10-16T00:09:56.715Z,100.00
2023-10-16T00:12:24.087Z,100.00
2023-10-16T00:14:53.284Z,100.00
2023-10-16T00:17:23.058Z,100.00
2023-10-16T00:19:49.728Z,100.00
2023-10-16T00:22:19.988Z,100.00
2023-10-16T00:24:49.812Z,100.00
2023-10-16T00:27:16.719Z,100.00
2023-10-16T00:29:45.765Z,100.00
2023-10-16T00:32:18.048Z,100.00
2023-10-16T00:34:45.905Z,100.00
2023-10-16T00:37:13.564Z,100.00
2023-10-16T00:39:40.212Z,100.00
2023-10-16T00:42:10.530Z,100.00
2023-10-16T00:44:40.557Z,100.00
2023-10-16T00:47:11.117Z,100.00
2023-10-16T00:49:39.751Z,100.00
2023-10-16T00:52:06.920Z,100.00
2023-10-16T00:54:35.243Z,100.00
2023-10-16T00:57:01.945Z,100.00
2023-10-16T00:59:30.048Z,100.00
2023-10-16T01:02:13.146Z,100.00
2023-10-16T01:04:42.546Z,100.00
2023-10-16T01:07:16.436Z,100.00
2023-10-16T01:09:48.814Z,100.00
2023-10-16T01:12:17.062Z,100.00
2023-10-16T01:14:45.436Z,100.00
2023-10-16T01:17:12.579Z,100.00
2023-10-16T01:19:40.608Z,100.00
2023-10-16T01:22:12.791Z,100.00
2023-10-16T01:24:45.436Z,100.00
2023-10-16T01:27:28.349Z,100.00
2023-10-16T01:29:58.551Z,100.00
2023-10-16T01:32:27.685Z,100.00
2023-10-16T01:34:54.423Z,100.00
2023-10-16T01:37:21.122Z,100.00
2023-10-16T01:39:51.467Z,100.00
2023-10-16T01:42:19.471Z,100.00
2023-10-16T01:44:49.549Z,100.00
2023-10-16T01:47:19.124Z,100.00
2023-10-16T01:49:55.272Z,100.00
2023-10-16T01:52:23.586Z,100.00
2023-10-16T01:54:53.291Z,100.00
2023-10-16T01:57:22.787Z,100.00
2023-10-16T01:59:49.942Z,100.00
2023-10-16T02:02:19.018Z,100.00
2023-10-16T02:04:48.513Z,100.00
2023-10-16T02:07:15.158Z,100.00
2023-10-16T02:09:45.583Z,100.00
2023-10-16T02:12:16.641Z,100.00
2023-10-16T02:14:47.527Z,100.00
2023-10-16T02:17:21.843Z,100.00
2023-10-16T02:19:49.049Z,100.00
2023-10-16T02:22:18.708Z,100.00
2023-10-16T02:24:46.194Z,100.00
2023-10-16T02:27:19.752Z,100.00
2023-10-16T02:29:48.994Z,100.00
2023-10-16T02:32:16.386Z,100.00
2023-10-16T02:34:43.469Z,100.00
2023-10-16T02:37:16.076Z,100.00
2023-10-16T02:39:52.724Z,100.00
2023-10-16T02:42:20.682Z,100.00
2023-10-16T02:44:51.384Z,100.00
2023-10-16T02:47:27.717Z,100.00
2023-10-16T02:49:54.927Z,100.00
2023-10-16T02:52:22.650Z,100.00
2023-10-16T02:54:54.068Z,100.00
2023-10-16T02:57:21.023Z,100.00
2023-10-16T02:59:50.918Z,100.00
2023-10-16T03:02:24.693Z,100.00
2023-10-16T03:04:56.141Z,100.00
2023-10-16T03:07:24.108Z,100.00
2023-10-16T03:09:54.104Z,100.00
2023-10-16T03:12:21.686Z,100.00
2023-10-16T03:15:08.917Z,100.00
2023-10-16T03:17:38.574Z,100.00
2023-10-16T03:20:10.335Z,100.00
2023-10-16T03:22:37.108Z,100.00
2023-10-16T03:25:13.735Z,100.00
2023-10-16T03:27:43.608Z,100.00
2023-10-16T03:30:11.715Z,100.00
2023-10-16T03:32:38.423Z,100.00
2023-10-16T03:35:10.411Z,100.00
2023-10-16T03:37:37.173Z,100.00
2023-10-16T03:40:13.199Z,100.00
2023-10-16T03:42:43.123Z,100.00
2023-10-16T03:45:14.332Z,100.00
2023-10-16T03:47:46.708Z,100.00
2023-10-16T03:50:14.925Z,100.00
2023-10-16T03:52:44.305Z,100.00
2023-10-16T03:55:39.865Z,100.00
2023-10-16T03:58:08.063Z,100.00
2023-10-16T04:00:59.038Z,100.00
2023-10-16T04:03:28.291Z,100.00
2023-10-16T04:05:55.167Z,100.00
2023-10-16T04:08:27.678Z,100.00
2023-10-16T04:10:57.752Z,100.00
2023-10-16T04:13:27.535Z,100.00
2023-10-16T04:16:00.312Z,100.00
2023-10-16T04:18:27.148Z,100.00
2023-10-16T04:21:12.565Z,100.00
2023-10-16T04:23:51.212Z,100.00
2023-10-16T04:26:28.355Z,100.00
2023-10-16T04:29:07.075Z,100.00
2023-10-16T04:31:54.710Z,100.00
2023-10-16T04:34:24.363Z,100.00
2023-10-16T04:37:14.083Z,100.00
2023-10-16T04:39:55.988Z,100.00
2023-10-16T04:42:41.399Z,100.00
2023-10-16T04:45:17.647Z,100.00
2023-10-16T04:47:54.744Z,100.00
2023-10-16T04:53:06.396Z,100.00
2023-10-16T04:55:41.972Z,100.00
2023-10-16T04:58:21.053Z,100.00
2023-10-16T05:00:58.978Z,100.00
2023-10-16T05:03:28.681Z,100.00
2023-10-16T05:06:05.107Z,100.00
2023-10-16T05:08:36.089Z,100.00
2023-10-16T05:11:21.525Z,100.00
2023-10-16T05:13:57.867Z,100.00
2023-10-16T05:16:48.800Z,100.00
2023-10-16T05:19:38.873Z,100.00
2023-10-16T05:22:05.600Z,100.00
2023-10-16T05:24:51.088Z,100.00
2023-10-16T05:27:39.401Z,100.00
2023-10-16T05:30:24.922Z,100.00
2023-10-16T05:33:13.351Z,100.00
2023-10-16T05:35:58.829Z,100.00
2023-10-16T05:38:44.209Z,100.00
2023-10-16T05:41:29.967Z,100.00
2023-10-16T05:44:20.329Z,100.00
2023-10-16T05:47:05.540Z,100.00
2023-10-16T05:49:50.884Z,100.00
2023-10-16T05:52:35.984Z,100.00
2023-10-16T05:55:21.013Z,100.00
2023-10-16T05:58:06.485Z,100.00
2023-10-16T06:00:51.910Z,100.00
2023-10-16T06:03:40.284Z,100.00
2023-10-16T06:06:25.622Z,100.00
2023-10-16T06:09:11.152Z,100.00
2023-10-16T06:11:56.197Z,100.00
2023-10-16T06:14:22.907Z,100.00
2023-10-16T06:16:53.957Z,100.00
2023-10-16T06:19:21.266Z,100.00
2023-10-16T06:21:49.993Z,100.00
2023-10-16T06:24:34.242Z,100.00
2023-10-16T06:27:03.237Z,100.00
2023-10-16T06:29:35.873Z,100.00
2023-10-16T06:32:09.302Z,100.00
2023-10-16T06:34:36.431Z,100.00
2023-10-16T06:37:06.902Z,100.00
2023-10-16T06:39:36.892Z,100.00
2023-10-16T06:42:04.544Z,100.00
2023-10-16T06:44:37.418Z,100.00
2023-10-16T06:47:04.296Z,100.00
2023-10-16T06:49:39.951Z,100.00
2023-10-16T06:52:06.950Z,100.00
2023-10-16T06:54:33.910Z,100.00
2023-10-16T06:57:06.327Z,100.00
2023-10-16T06:59:33.110Z,100.00
2023-10-16T07:02:03.149Z,100.00
2023-10-16T07:04:30.955Z,100.00
2023-10-16T07:07:00.778Z,100.00
2023-10-16T07:09:37.760Z,100.00
2023-10-16T07:12:04.672Z,100.00
2023-10-16T07:14:32.015Z,100.00
2023-10-16T07:17:00.228Z,100.00
2023-10-16T07:19:27.000Z,100.00
2023-10-16T07:21:53.686Z,100.00
2023-10-16T07:24:23.042Z,100.00
2023-10-16T07:26:50.395Z,100.00
2023-10-16T07:29:22.920Z,100.00
2023-10-16T07:31:55.405Z,100.00
2023-10-16T07:34:25.158Z,100.00
2023-10-16T07:36:56.557Z,100.00
2023-10-16T07:39:23.577Z,100.00
2023-10-16T07:41:54.847Z,100.00
2023-10-16T07:44:21.493Z,100.00
2023-10-16T07:46:51.992Z,100.00
2023-10-16T07:49:19.704Z,100.00
2023-10-16T07:51:49.643Z,100.00
2023-10-16T07:54:16.382Z,100.00
2023-10-16T07:56:43.695Z,100.00
2023-10-16T07:59:11.127Z,100.00
2023-10-16T08:01:44.549Z,100.00
2023-10-16T08:04:21.092Z,100.00
2023-10-16T08:06:53.672Z,100.00
2023-10-16T08:09:23.325Z,100.00
2023-10-16T08:12:14.196Z,100.00
2023-10-16T08:14:43.947Z,100.00
2023-10-16T08:17:17.634Z,100.00
2023-10-16T08:19:45.579Z,100.00
2023-10-16T08:22:15.224Z,100.00
2023-10-16T08:24:45.398Z,100.00
2023-10-16T08:27:20.696Z,100.00
2023-10-16T08:30:00.372Z,100.00
2023-10-16T08:32:46.064Z,100.00
2023-10-16T08:35:18.634Z,100.00
2023-10-16T08:40:21.145Z,100.00
2023-10-16T08:42:48.556Z,100.00
2023-10-16T08:45:25.600Z,100.00
2023-10-16T08:47:53.959Z,100.00
2023-10-16T08:50:25.709Z,100.00
2023-10-16T08:52:59.500Z,100.00
2023-10-16T08:55:28.468Z,100.00
2023-10-16T08:57:55.125Z,100.00
2023-10-16T09:00:24.529Z,100.00
2023-10-16T09:02:53.638Z,100.00
2023-10-16T09:05:25.252Z,100.00
2023-10-16T09:07:56.661Z,100.00
2023-10-16T09:10:23.335Z,100.00
2023-10-16T09:12:56.128Z,100.00
2023-10-16T09:15:25.976Z,100.00
2023-10-16T09:17:53.295Z,100.00
2023-10-16T09:20:34.006Z,100.00
2023-10-16T09:23:03.733Z,100.00
2023-10-16T09:25:37.830Z,100.00
2023-10-16T09:28:06.696Z,100.00
2023-10-16T09:30:35.199Z,98.66
2023-10-16T09:33:02.435Z,98.44
2023-10-16T09:35:34.007Z,98.58
2023-10-16T09:38:20.400Z,99.16
2023-10-16T09:41:22.017Z,92.07
2023-10-16T09:43:50.139Z,89.83
2023-10-16T09:46:50.336Z,90.64
2023-10-16T09:49:22.412Z,93.21
2023-10-16T09:52:03.627Z,97.39
2023-10-16T09:54:34.056Z,94.29
2023-10-16T09:57:01.014Z,92.63
2023-10-16T09:59:33.328Z,94.94
2023-10-16T10:02:10.298Z,94.14
2023-10-16T10:04:37.755Z,85.50
2023-10-16T10:07:12.671Z,80.94
2023-10-16T10:09:43.575Z,82.63
2023-10-16T10:12:16.425Z,74.62
2023-10-16T10:14:50.028Z,77.45
2023-10-16T10:17:21.420Z,81.78
2023-10-16T10:19:57.495Z,83.77
2023-10-16T10:22:28.563Z,82.50
2023-10-16T10:25:24.123Z,81.52
2023-10-16T10:27:51.474Z,73.44
2023-10-16T10:30:26.604Z,70.26
2023-10-16T10:32:54.846Z,77.17
2023-10-16T10:35:32.215Z,74.54
2023-10-16T10:38:21.943Z,68.13
2023-10-16T10:41:11.874Z,70.04
2023-10-16T10:43:48.803Z,70.29
2023-10-16T10:46:35.940Z,68.80
2023-10-16T10:49:04.533Z,65.71
2023-10-16T10:51:36.957Z,64.17
2023-10-16T10:54:08.114Z,59.37
2023-10-16T10:56:39.400Z,59.33
2023-10-16T10:59:13.787Z,61.82
2023-10-16T11:01:56.189Z,64.20
2023-10-16T11:04:23.230Z,64.46
2023-10-16T11:06:55.604Z,61.69
2023-10-16T11:09:28.223Z,61.59
2023-10-16T11:11:56.281Z,60.24
2023-10-16T11:14:38.760Z,57.75
2023-10-16T11:17:08.403Z,54.01
2023-10-16T11:19:50.945Z,53.00
2023-10-16T11:22:21.325Z,56.49
2023-10-16T11:24:48.349Z,52.88
2023-10-16T11:27:15.398Z,52.54
2023-10-16T11:29:43.870Z,51.51
2023-10-16T11:32:16.464Z,49.09
2023-10-16T11:34:46.562Z,51.96
2023-10-16T11:37:16.322Z,49.92
2023-10-16T11:39:45.485Z,46.70
2023-10-16T11:42:14.422Z,46.58
2023-10-16T11:44:41.515Z,47.71
2023-10-16T11:47:10.432Z,47.22
2023-10-16T11:49:37.491Z,48.69
2023-10-16T11:52:20.778Z,47.66
2023-10-16T11:54:51.477Z,45.53
2023-10-16T11:57:20.689Z,45.65
2023-10-16T11:59:47.454Z,47.13
2023-10-16T12:02:14.655Z,47.31
2023-10-16T12:04:42.675Z,46.89
2023-10-16T12:07:09.959Z,46.46
2023-10-16T12:09:43.381Z,46.83
2023-10-16T12:12:17.681Z,45.32
2023-10-16T12:14:44.467Z,42.80
2023-10-16T12:17:13.706Z,42.36
2023-10-16T12:19:40.569Z,38.42
2023-10-16T12:22:10.199Z,38.45
2023-10-16T12:24:37.112Z,38.76
2023-10-16T12:27:06.249Z,36.29
2023-10-16T12:29:33.411Z,38.57
2023-10-16T12:32:01.893Z,35.33
2023-10-16T12:34:32.827Z,37.54
2023-10-16T12:36:59.939Z,40.58
2023-10-16T12:39:30.177Z,37.99
2023-10-16T12:41:57.390Z,35.95
2023-10-16T12:44:28.247Z,36.46
2023-10-16T12:46:58.100Z,34.75
2023-10-16T12:49:27.353Z,34.83
2023-10-16T12:51:56.315Z,36.25
2023-10-16T12:54:26.552Z,34.79
2023-10-16T12:56:55.119Z,34.04
2023-10-16T12:59:24.737Z,35.21
2023-10-16T13:01:53.386Z,33.95
2023-10-16T13:04:20.777Z,32.34
2023-10-16T13:06:47.635Z,33.37
2023-10-16T13:09:21.102Z,34.53
2023-10-16T13:11:47.848Z,34.38
2023-10-16T13:14:19.496Z,33.52
2023-10-16T13:16:54.690Z,32.87
2023-10-16T13:19:23.814Z,32.11
2023-10-16T13:21:53.838Z,33.99
2023-10-16T13:24:24.817Z,32.74
2023-10-16T13:26:54.888Z,31.86
2023-10-16T13:29:24.578Z,31.52
2023-10-16T13:31:55.063Z,31.30
2023-10-16T13:34:23.746Z,31.98
2023-10-16T13:37:02.802Z,32.38
2023-10-16T13:39:32.775Z,31.09
2023-10-16T13:42:00.718Z,30.59
2023-10-16T13:44:27.736Z,30.16
2023-10-16T13:46:55.198Z,29.67
2023-10-16T13:49:25.165Z,28.39
2023-10-16T13:51:53.855Z,28.32
2023-10-16T13:54:21.705Z,28.55
2023-10-16T13:56:51.239Z,29.57
2023-10-16T13:59:19.548Z,30.22
2023-10-16T14:01:48.618Z,29.45
2023-10-16T14:04:18.295Z,29.79
2023-10-16T14:06:53.105Z,28.41
2023-10-16T14:09:28.448Z,27.57
2023-10-16T14:11:55.817Z,27.94
2023-10-16T14:14:22.854Z,27.27
2023-10-16T14:16:53.290Z,29.33
2023-10-16T14:19:24.017Z,30.17
2023-10-16T14:21:52.948Z,28.54
2023-10-16T14:24:26.862Z,28.53
2023-10-16T14:26:59.271Z,27.30
2023-10-16T14:29:27.077Z,26.75
2023-10-16T14:31:58.076Z,26.33
2023-10-16T14:34:26.059Z,27.51
2023-10-16T14:36:53.802Z,28.52
2023-10-16T14:39:21.135Z,29.71
2023-10-16T14:41:51.170Z,29.37
2023-10-16T14:44:25.238Z,30.36
2023-10-16T14:46:57.730Z,32.08
2023-10-16T14:49:30.328Z,33.31
2023-10-16T14:51:57.558Z,34.27
2023-10-16T14:54:24.481Z,35.26
2023-10-16T14:56:53.741Z,36.40
2023-10-16T14:59:33.524Z,37.12
2023-10-16T15:02:04.368Z,37.63
2023-10-16T15:04:31.701Z,37.38
2023-10-16T15:07:08.840Z,37.77
2023-10-16T15:09:38.564Z,38.49
2023-10-16T15:12:08.458Z,39.02
2023-10-16T15:14:36.806Z,39.41
2023-10-16T15:17:03.535Z,39.54
2023-10-16T15:19:30.324Z,39.64
2023-10-16T15:22:04.580Z,39.96
2023-10-16T15:24:31.918Z,39.92
2023-10-16T15:27:01.968Z,39.59
2023-10-16T15:29:29.884Z,39.54
2023-10-16T15:31:58.024Z,38.19
2023-10-16T15:34:25.868Z,38.77
2023-10-16T15:36:54.865Z,38.24
2023-10-16T15:39:24.381Z,38.97
2023-10-16T15:41:53.477Z,40.29
2023-10-16T15:44:23.301Z,40.91
2023-10-16T15:46:50.414Z,41.72
2023-10-16T15:52:07.342Z,42.80
2023-10-16T15:54:33.979Z,43.03
2023-10-16T15:57:03.241Z,43.35
2023-10-16T15:59:30.681Z,44.99
2023-10-16T16:01:57.378Z,46.38
2023-10-16T16:04:24.165Z,47.31
2023-10-16T16:06:50.959Z,47.12
2023-10-16T16:09:20.211Z,48.09
2023-10-16T16:11:47.040Z,48.93
2023-10-16T16:14:21.726Z,50.06
2023-10-16T16:16:54.493Z,50.21
2023-10-16T16:19:24.406Z,49.91
2023-10-16T16:21:51.222Z,50.07
2023-10-16T16:24:17.997Z,50.83
2023-10-16T16:26:46.987Z,50.60
2023-10-16T16:29:16.378Z,51.41
2023-10-16T16:31:43.205Z,52.24
2023-10-16T16:34:10.084Z,53.24
2023-10-16T16:36:41.543Z,55.44
2023-10-16T16:39:13.944Z,58.24
2023-10-16T16:41:41.987Z,62.75
2023-10-16T16:44:09.439Z,67.18
2023-10-16T16:46:38.868Z,67.17
2023-10-16T16:49:11.616Z,67.70
2023-10-16T16:51:38.583Z,69.99
2023-10-16T16:54:05.280Z,69.26
2023-10-16T16:56:33.657Z,75.70
2023-10-16T16:59:06.990Z,74.97
2023-10-16T17:01:34.046Z,81.36
2023-10-16T17:04:00.852Z,83.89
2023-10-16T17:06:27.798Z,83.33
2023-10-16T17:08:58.063Z,81.41
2023-10-16T17:11:30.407Z,80.23
2023-10-16T17:13:57.040Z,80.42
2023-10-16T17:16:24.204Z,80.71
2023-10-16T17:18:51.637Z,78.25
2023-10-16T17:21:24.704Z,80.08
2023-10-16T17:24:02.254Z,77.26
2023-10-16T17:26:33.963Z,75.44
2023-10-16T17:29:00.819Z,74.93
2023-10-16T17:31:27.476Z,74.16
2023-10-16T17:33:56.411Z,76.81
2023-10-16T17:36:25.729Z,77.04
2023-10-16T17:38:52.455Z,73.93
2023-10-16T17:41:21.534Z,73.74
2023-10-16T17:43:48.333Z,72.84
2023-10-16T17:46:15.014Z,73.99
2023-10-16T17:48:44.980Z,74.73
2023-10-16T17:51:11.852Z,74.42
2023-10-16T17:53:39.002Z,74.34
2023-10-16T17:56:05.889Z,74.41
2023-10-16T17:58:34.811Z,73.66
2023-10-16T18:01:01.972Z,72.77
2023-10-16T18:03:29.296Z,72.21
2023-10-16T18:05:57.433Z,73.60
2023-10-16T18:08:26.035Z,73.07
2023-10-16T18:10:53.859Z,74.39
2023-10-16T18:13:23.106Z,74.87
2023-10-16T18:15:55.850Z,73.78
2023-10-16T18:18:25.349Z,73.46
2023-10-16T18:20:55.116Z,75.86
2023-10-16T18:23:22.099Z,77.68
2023-10-16T18:25:48.739Z,80.35
2023-10-16T18:28:18.845Z,81.82
2023-10-16T18:30:50.195Z,81.11
2023-10-16T18:33:16.940Z,82.05
2023-10-16T18:35:48.525Z,83.22
2023-10-16T18:38:16.137Z,84.08
2023-10-16T18:40:42.977Z,83.82
2023-10-16T18:43:10.046Z,83.15
2023-10-16T18:45:38.060Z,83.29
2023-10-16T18:48:05.295Z,83.94
2023-10-16T18:50:34.493Z,85.29
2023-10-16T18:53:01.580Z,86.36
2023-10-16T18:55:28.990Z,86.12
2023-10-16T18:57:58.916Z,87.78
2023-10-16T19:00:29.908Z,92.01
2023-10-16T19:03:04.055Z,97.53
2023-10-16T19:05:34.001Z,100.00
2023-10-16T19:08:00.923Z,97.54
2023-10-16T19:10:27.617Z,97.02
2023-10-16T19:12:54.736Z,96.79
2023-10-16T19:15:22.538Z,97.09
2023-10-16T19:17:53.007Z,100.00
2023-10-16T19:20:23.958Z,100.00
2023-10-16T19:22:53.474Z,100.00
2023-10-16T19:25:22.629Z,100.00
2023-10-16T19:27:51.658Z,100.00
2023-10-16T19:30:21.005Z,100.00
2023-10-16T19:32:47.753Z,100.00
2023-10-16T19:35:17.540Z,100.00
2023-10-16T19:37:44.751Z,100.00
2023-10-16T19:40:16.628Z,100.00
2023-10-16T19:42:47.254Z,100.00
2023-10-16T19:45:14.559Z,100.00
2023-10-16T19:47:42.987Z,100.00
2023-10-16T19:50:10.769Z,100.00
2023-10-16T19:52:41.134Z,100.00
2023-10-16T19:55:11.428Z,100.00
2023-10-16T19:57:40.965Z,100.00
2023-10-16T20:00:18.304Z,100.00
2023-10-16T20:02:55.548Z,100.00
2023-10-16T20:05:23.680Z,100.00
2023-10-16T20:07:53.482Z,100.00
2023-10-16T20:10:20.884Z,100.00
2023-10-16T20:12:54.301Z,100.00
2023-10-16T20:15:23.572Z,100.00
2023-10-16T20:17:51.368Z,100.00
2023-10-16T20:20:22.612Z,100.00
2023-10-16T20:22:53.318Z,100.00
2023-10-16T20:25:22.748Z,100.00
2023-10-16T20:27:53.256Z,100.00
2023-10-16T20:30:20.521Z,100.00
2023-10-16T20:32:48.017Z,100.00
2023-10-16T20:35:14.776Z,100.00
2023-10-16T20:37:42.478Z,100.00
2023-10-16T20:40:12.506Z,100.00
2023-10-16T20:42:40.161Z,100.00
2023-10-16T20:45:08.584Z,100.00
2023-10-16T20:47:37.941Z,100.00
2023-10-16T20:50:04.803Z,100.00
2023-10-16T20:52:31.579Z,100.00
2023-10-16T20:54:58.206Z,100.00
2023-10-16T20:57:25.061Z,100.00
2023-10-16T20:59:54.310Z,100.00
2023-10-16T21:02:21.344Z,100.00
2023-10-16T21:04:50.306Z,100.00
2023-10-16T21:07:19.333Z,100.00
2023-10-16T21:09:48.406Z,100.00
2023-10-16T21:12:15.120Z,100.00
2023-10-16T21:14:44.780Z,100.00
2023-10-16T21:17:14.341Z,100.00
2023-10-16T21:19:41.035Z,100.00
2023-10-16T21:22:08.771Z,100.00
2023-10-16T21:24:35.418Z,100.00
2023-10-16T21:27:07.502Z,100.00
2023-10-16T21:29:34.359Z,100.00
2023-10-16T21:32:00.978Z,100.00
2023-10-16T21:34:27.776Z,100.00
2023-10-16T21:36:54.561Z,100.00
2023-10-16T21:39:23.762Z,100.00
2023-10-16T21:41:50.864Z,100.00
2023-10-16T21:44:19.457Z,100.00
2023-10-16T21:46:46.287Z,100.00
2023-10-16T21:49:13.174Z,100.00
2023-10-16T21:51:40.532Z,100.00
2023-10-16T21:54:10.417Z,100.00
2023-10-16T21:56:39.692Z,100.00
2023-10-16T21:59:06.436Z,100.00
2023-10-16T22:01:35.441Z,100.00
2023-10-16T22:04:04.349Z,100.00
2023-10-16T22:06:32.033Z,100.00
2023-10-16T22:09:06.629Z,100.00
2023-10-16T22:11:40.390Z,100.00
2023-10-16T22:14:09.636Z,100.00
2023-10-16T22:16:37.523Z,100.00
2023-10-16T22:19:04.200Z,100.00
2023-10-16T22:21:31.672Z,100.00
2023-10-16T22:24:00.873Z,100.00
2023-10-16T22:26:27.600Z,100.00
2023-10-16T22:28:54.196Z,100.00
2023-10-16T22:31:23.342Z,100.00
2023-10-16T22:33:50.083Z,100.00
2023-10-16T22:36:17.139Z,100.00
2023-10-16T22:38:44.147Z,100.00
2023-10-16T22:41:12.288Z,100.00
2023-10-16T22:43:41.440Z,100.00
2023-10-16T22:46:08.377Z,100.00
2023-10-16T22:48:36.631Z,100.00
2023-10-16T22:51:03.555Z,100.00
2023-10-16T22:53:33.632Z,100.00
2023-10-16T22:56:03.471Z,100.00
2023-10-16T22:58:30.341Z,100.00
2023-10-16T23:00:58.351Z,100.00
2023-10-16T23:03:24.994Z,100.00
2023-10-16T23:06:00.639Z,100.00
2023-10-16T23:08:33.187Z,100.00
2023-10-16T23:11:11.186Z,100.00
2023-10-16T23:13:38.374Z,100.00
2023-10-16T23:16:08.385Z,100.00
2023-10-16T23:18:37.458Z,100.00
2023-10-16T23:21:04.208Z,100.00
2023-10-16T23:23:30.932Z,100.00
2023-10-16T23:25:58.980Z,100.00
2023-10-16T23:28:25.602Z,100.00
2023-10-16T23:30:53.070Z,100.00
2023-10-16T23:33:21.111Z,100.00
2023-10-16T23:35:58.032Z,100.00
2023-10-16T23:38:25.056Z,100.00
2023-10-16T23:41:05.022Z,100.00
2023-10-16T23:43:38.193Z,100.00
2023-10-16T23:46:07.288Z,100.00
2023-10-16T23:48:36.980Z,100.00
2023-10-16T23:51:23.466Z,100.00
2023-10-16T23:53:50.638Z,100.00
2023-10-16T23:56:20.830Z,100.00
2023-10-16T23:58:55.847Z,100.00
